sensor_id;sensor_type;location;lat;lon;timestamp;pressure;altitude;pressure_sealevel;temperature;humidity
44914;BME280;30650;52.206;20.924;2022-10-31T00:00:42;100996.08;;;8.88;73.36
44914;BME280;30650;52.206;20.924;2022-10-31T00:01:40;100996.49;;;8.86;73.54
44914;BME280;30650;52.206;20.924;2022-10-31T00:02:37;100995.19;;;8.85;73.71
44914;BME280;30650;52.206;20.924;2022-10-31T00:03:34;100993.00;;;8.83;73.77
44914;BME280;30650;52.206;20.924;2022-10-31T00:04:30;100996.84;;;8.81;73.73
44914;BME280;30650;52.206;20.924;2022-10-31T00:05:27;101000.27;;;8.82;73.87
44914;BME280;30650;52.206;20.924;2022-10-31T00:06:24;100994.27;;;8.81;73.96
44914;BME280;30650;52.206;20.924;2022-10-31T00:07:20;100998.12;;;8.81;74.11
44914;BME280;30650;52.206;20.924;2022-10-31T00:08:17;100998.14;;;8.83;74.23
44914;BME280;30650;52.206;20.924;2022-10-31T00:09:14;101002.86;;;8.83;74.36
44914;BME280;30650;52.206;20.924;2022-10-31T00:10:11;100995.58;;;8.84;74.13
44914;BME280;30650;52.206;20.924;2022-10-31T00:11:10;101000.34;;;8.86;73.83
44914;BME280;30650;52.206;20.924;2022-10-31T00:12:07;100996.49;;;8.86;73.81
44914;BME280;30650;52.206;20.924;2022-10-31T00:13:04;100999.55;;;8.89;73.78
44914;BME280;30650;52.206;20.924;2022-10-31T00:14:01;101003.42;;;8.90;73.77
44914;BME280;30650;52.206;20.924;2022-10-31T00:14:59;100998.28;;;8.90;73.60
44914;BME280;30650;52.206;20.924;2022-10-31T00:15:55;100998.28;;;8.90;73.43
44914;BME280;30650;52.206;20.924;2022-10-31T00:16:51;100996.13;;;8.90;73.59
44914;BME280;30650;52.206;20.924;2022-10-31T00:17:48;100993.13;;;8.89;73.46
44914;BME280;30650;52.206;20.924;2022-10-31T00:18:49;100999.50;;;8.87;73.23
44914;BME280;30650;52.206;20.924;2022-10-31T00:19:49;100997.78;;;8.86;73.13
44914;BME280;30650;52.206;20.924;2022-10-31T00:20:46;100993.91;;;8.85;72.97
44914;BME280;30650;52.206;20.924;2022-10-31T00:21:42;100993.00;;;8.83;73.15
44914;BME280;30650;52.206;20.924;2022-10-31T00:22:39;100995.55;;;8.81;73.27
44914;BME280;30650;52.206;20.924;2022-10-31T00:23:35;100994.20;;;8.78;73.76
44914;BME280;30650;52.206;20.924;2022-10-31T00:24:32;100997.20;;;8.78;74.00
44914;BME280;30650;52.206;20.924;2022-10-31T00:25:29;100993.72;;;8.76;73.80
44914;BME280;30650;52.206;20.924;2022-10-31T00:26:31;100995.43;;;8.75;73.98
44914;BME280;30650;52.206;20.924;2022-10-31T00:27:27;100992.00;;;8.75;74.07
44914;BME280;30650;52.206;20.924;2022-10-31T00:28:24;100993.28;;;8.75;73.92
44914;BME280;30650;52.206;20.924;2022-10-31T00:29:20;100991.09;;;8.73;74.07
44914;BME280;30650;52.206;20.924;2022-10-31T00:30:17;100989.80;;;8.73;73.84
44914;BME280;30650;52.206;20.924;2022-10-31T00:31:14;100988.94;;;8.72;73.98
44914;BME280;30650;52.206;20.924;2022-10-31T00:32:10;100990.24;;;8.74;74.20
44914;BME280;30650;52.206;20.924;2022-10-31T00:33:07;100989.42;;;8.75;73.80
44914;BME280;30650;52.206;20.924;2022-10-31T00:34:03;100994.56;;;8.75;73.62
44914;BME280;30650;52.206;20.924;2022-10-31T00:35:00;100990.29;;;8.75;73.43
44914;BME280;30650;52.206;20.924;2022-10-31T00:35:56;100991.15;;;8.76;73.58
44914;BME280;30650;52.206;20.924;2022-10-31T00:36:53;100991.15;;;8.76;73.69
44914;BME280;30650;52.206;20.924;2022-10-31T00:37:49;100992.92;;;8.78;73.88
44914;BME280;30650;52.206;20.924;2022-10-31T00:38:46;100991.22;;;8.79;73.78
44914;BME280;30650;52.206;20.924;2022-10-31T00:39:43;100987.78;;;8.78;73.53
44914;BME280;30650;52.206;20.924;2022-10-31T00:40:41;100990.77;;;8.78;73.54
44914;BME280;30650;52.206;20.924;2022-10-31T00:41:37;100992.45;;;8.77;73.52
44914;BME280;30650;52.206;20.924;2022-10-31T00:42:33;100986.88;;;8.76;73.42
44914;BME280;30650;52.206;20.924;2022-10-31T00:43:30;100991.53;;;8.74;73.40
44914;BME280;30650;52.206;20.924;2022-10-31T00:44:26;100993.66;;;8.73;73.20
44914;BME280;30650;52.206;20.924;2022-10-31T00:45:23;100991.07;;;8.71;73.36
44914;BME280;30650;52.206;20.924;2022-10-31T00:46:19;100993.59;;;8.69;73.50
44914;BME280;30650;52.206;20.924;2022-10-31T00:47:16;100990.15;;;8.67;73.53
44914;BME280;30650;52.206;20.924;2022-10-31T00:48:12;100994.00;;;8.67;73.57
44914;BME280;30650;52.206;20.924;2022-10-31T00:49:09;100992.67;;;8.66;73.52
44914;BME280;30650;52.206;20.924;2022-10-31T00:50:05;100995.24;;;8.66;73.42
44914;BME280;30650;52.206;20.924;2022-10-31T00:51:02;100995.66;;;8.65;73.33
44914;BME280;30650;52.206;20.924;2022-10-31T00:51:58;100992.67;;;8.66;73.29
44914;BME280;30650;52.206;20.924;2022-10-31T00:52:55;100992.25;;;8.66;73.22
44914;BME280;30650;52.206;20.924;2022-10-31T00:53:52;100998.28;;;8.67;73.08
44914;BME280;30650;52.206;20.924;2022-10-31T00:54:49;100990.96;;;8.66;72.89
44914;BME280;30650;52.206;20.924;2022-10-31T00:55:45;100989.67;;;8.66;72.92
44914;BME280;30650;52.206;20.924;2022-10-31T00:56:42;100993.14;;;8.67;72.85
44914;BME280;30650;52.206;20.924;2022-10-31T00:57:38;100988.81;;;8.66;72.70
44914;BME280;30650;52.206;20.924;2022-10-31T00:58:35;100988.80;;;8.64;72.19
44914;BME280;30650;52.206;20.924;2022-10-31T00:59:31;100988.31;;;8.62;71.83
44914;BME280;30650;52.206;20.924;2022-10-31T01:00:28;100982.72;;;8.59;71.68
44914;BME280;30650;52.206;20.924;2022-10-31T01:01:24;100990.38;;;8.58;71.70
44914;BME280;30650;52.206;20.924;2022-10-31T01:02:21;100992.02;;;8.54;71.78
44914;BME280;30650;52.206;20.924;2022-10-31T01:03:17;100991.95;;;8.51;71.96
44914;BME280;30650;52.206;20.924;2022-10-31T01:04:14;100989.75;;;8.48;71.97
44914;BME280;30650;52.206;20.924;2022-10-31T01:05:11;100984.96;;;8.44;71.79
44914;BME280;30650;52.206;20.924;2022-10-31T01:06:11;100986.22;;;8.41;71.92
44914;BME280;30650;52.206;20.924;2022-10-31T01:07:08;100987.43;;;8.38;72.17
44914;BME280;30650;52.206;20.924;2022-10-31T01:08:07;100986.48;;;8.36;72.59
44914;BME280;30650;52.206;20.924;2022-10-31T01:09:03;100988.20;;;8.35;73.42
44914;BME280;30650;52.206;20.924;2022-10-31T01:09:59;100986.91;;;8.35;73.71
44914;BME280;30650;52.206;20.924;2022-10-31T01:11:18;100988.20;;;8.35;74.07
44914;BME280;30650;52.206;20.924;2022-10-31T01:12:15;100984.78;;;8.36;74.28
44914;BME280;30650;52.206;20.924;2022-10-31T01:13:12;100983.07;;;8.37;74.20
44914;BME280;30650;52.206;20.924;2022-10-31T01:14:09;100991.28;;;8.38;74.15
44914;BME280;30650;52.206;20.924;2022-10-31T01:15:06;100989.58;;;8.38;74.55
44914;BME280;30650;52.206;20.924;2022-10-31T01:16:05;100986.59;;;8.39;74.46
44914;BME280;30650;52.206;20.924;2022-10-31T01:17:02;100992.64;;;8.41;74.30
44914;BME280;30650;52.206;20.924;2022-10-31T01:17:59;100986.66;;;8.42;74.16
44914;BME280;30650;52.206;20.924;2022-10-31T01:18:55;100990.10;;;8.44;74.21
44914;BME280;30650;52.206;20.924;2022-10-31T01:19:52;100985.02;;;8.45;74.25
44914;BME280;30650;52.206;20.924;2022-10-31T01:21:01;100987.59;;;8.47;73.93
44914;BME280;30650;52.206;20.924;2022-10-31T01:21:55;100981.17;;;8.47;73.68
44914;BME280;30650;52.206;20.924;2022-10-31T01:22:52;100985.45;;;8.47;73.33
44914;BME280;30650;52.206;20.924;2022-10-31T01:23:49;100986.72;;;8.45;73.17
44914;BME280;30650;52.206;20.924;2022-10-31T01:24:46;100986.30;;;8.45;73.26
44914;BME280;30650;52.206;20.924;2022-10-31T01:25:43;100981.09;;;8.42;73.24
44914;BME280;30650;52.206;20.924;2022-10-31T01:26:40;100982.80;;;8.42;73.32
44914;BME280;30650;52.206;20.924;2022-10-31T01:27:36;100984.03;;;8.40;73.34
44914;BME280;30650;52.206;20.924;2022-10-31T01:28:34;100990.44;;;8.39;73.69
44914;BME280;30650;52.206;20.924;2022-10-31T01:29:32;100987.86;;;8.37;74.50
44914;BME280;30650;52.206;20.924;2022-10-31T01:30:28;100989.50;;;8.37;74.47
44914;BME280;30650;52.206;20.924;2022-10-31T01:31:27;100989.90;;;8.35;74.25
44914;BME280;30650;52.206;20.924;2022-10-31T01:32:26;100987.27;;;8.32;73.97
44914;BME280;30650;52.206;20.924;2022-10-31T01:33:25;100987.69;;;8.31;74.18
44914;BME280;30650;52.206;20.924;2022-10-31T01:34:21;100994.95;;;8.30;74.47
44914;BME280;30650;52.206;20.924;2022-10-31T01:35:17;100991.96;;;8.31;74.82
44914;BME280;30650;52.206;20.924;2022-10-31T01:36:18;100991.98;;;8.32;74.78
44914;BME280;30650;52.206;20.924;2022-10-31T01:37:21;100989.85;;;8.33;74.63
44914;BME280;30650;52.206;20.924;2022-10-31T01:38:18;100990.34;;;8.36;74.53
44914;BME280;30650;52.206;20.924;2022-10-31T01:39:15;100988.63;;;8.36;74.09
44914;BME280;30650;52.206;20.924;2022-10-31T01:40:11;100990.00;;;8.38;74.04
44914;BME280;30650;52.206;20.924;2022-10-31T01:41:10;100986.60;;;8.40;74.27
44914;BME280;30650;52.206;20.924;2022-10-31T01:42:10;100988.80;;;8.42;74.21
44914;BME280;30650;52.206;20.924;2022-10-31T01:43:17;100991.86;;;8.45;73.82
44914;BME280;30650;52.206;20.924;2022-10-31T01:45:17;100989.29;;;8.45;73.88
44914;BME280;30650;52.206;20.924;2022-10-31T01:46:16;100991.38;;;8.42;74.30
44914;BME280;30650;52.206;20.924;2022-10-31T01:47:17;100989.22;;;8.42;74.44
44914;BME280;30650;52.206;20.924;2022-10-31T01:48:19;100989.59;;;8.40;74.73
44914;BME280;30650;52.206;20.924;2022-10-31T01:50:39;100996.02;;;8.40;75.50
44914;BME280;30650;52.206;20.924;2022-10-31T01:51:40;100993.88;;;8.39;75.52
44914;BME280;30650;52.206;20.924;2022-10-31T01:52:44;100992.15;;;8.38;75.77
44914;BME280;30650;52.206;20.924;2022-10-31T01:53:43;100991.28;;;8.38;75.70
44914;BME280;30650;52.206;20.924;2022-10-31T01:54:45;100984.86;;;8.38;75.99
44914;BME280;30650;52.206;20.924;2022-10-31T01:55:44;100992.99;;;8.37;76.11
44914;BME280;30650;52.206;20.924;2022-10-31T01:56:42;100994.30;;;8.39;76.21
44914;BME280;30650;52.206;20.924;2022-10-31T01:57:43;100994.31;;;8.40;76.37
44914;BME280;30650;52.206;20.924;2022-10-31T01:58:42;100990.51;;;8.42;76.29
44914;BME280;30650;52.206;20.924;2022-10-31T01:59:42;100991.81;;;8.43;76.17
44914;BME280;30650;52.206;20.924;2022-10-31T02:00:43;100992.72;;;8.45;76.23
44914;BME280;30650;52.206;20.924;2022-10-31T02:01:41;100990.59;;;8.47;76.38
44914;BME280;30650;52.206;20.924;2022-10-31T02:02:37;100992.36;;;8.49;76.43
44914;BME280;30650;52.206;20.924;2022-10-31T02:03:34;100996.28;;;8.52;76.52
44914;BME280;30650;52.206;20.924;2022-10-31T02:04:30;100992.02;;;8.54;76.60
44914;BME280;30650;52.206;20.924;2022-10-31T02:05:29;100992.52;;;8.57;76.53
44914;BME280;30650;52.206;20.924;2022-10-31T02:06:36;100993.39;;;8.59;76.51
44914;BME280;30650;52.206;20.924;2022-10-31T02:07:42;100987.44;;;8.60;76.23
44914;BME280;30650;52.206;20.924;2022-10-31T02:08:40;100987.02;;;8.60;75.26
44914;BME280;30650;52.206;20.924;2022-10-31T02:09:39;100990.00;;;8.60;74.70
44914;BME280;30650;52.206;20.924;2022-10-31T02:10:37;100990.81;;;8.59;74.30
44914;BME280;30650;52.206;20.924;2022-10-31T02:11:34;100988.61;;;8.55;73.47
44914;BME280;30650;52.206;20.924;2022-10-31T02:12:34;100989.02;;;8.53;72.77
44914;BME280;30650;52.206;20.924;2022-10-31T02:13:34;100984.66;;;8.49;72.68
44914;BME280;30650;52.206;20.924;2022-10-31T02:14:31;100989.75;;;8.48;72.27
44914;BME280;30650;52.206;20.924;2022-10-31T02:15:28;100987.09;;;8.43;72.11
44914;BME280;30650;52.206;20.924;2022-10-31T02:16:26;100984.50;;;8.41;72.07
44914;BME280;30650;52.206;20.924;2022-10-31T02:17:22;100986.57;;;8.37;71.96
44914;BME280;30650;52.206;20.924;2022-10-31T02:18:19;100993.35;;;8.37;71.93
44914;BME280;30650;52.206;20.924;2022-10-31T02:19:21;100990.32;;;8.34;71.57
44914;BME280;30650;52.206;20.924;2022-10-31T02:20:27;100996.67;;;8.31;71.62
44914;BME280;30650;52.206;20.924;2022-10-31T02:21:44;100997.47;;;8.29;71.74
44914;BME280;30650;52.206;20.924;2022-10-31T02:25:46;100992.94;;;8.15;72.33
44914;BME280;30650;52.206;20.924;2022-10-31T02:27:12;100993.64;;;8.08;72.37
44914;BME280;30650;52.206;20.924;2022-10-31T02:30:05;100995.99;;;7.99;73.30
44914;BME280;30650;52.206;20.924;2022-10-31T02:37:35;100997.11;;;7.91;75.12
44914;BME280;30650;52.206;20.924;2022-10-31T02:39:11;101002.24;;;7.91;74.69
44914;BME280;30650;52.206;20.924;2022-10-31T02:40:21;101002.22;;;7.90;74.40
44914;BME280;30650;52.206;20.924;2022-10-31T02:41:31;101000.87;;;7.87;74.27
44914;BME280;30650;52.206;20.924;2022-10-31T02:42:59;101000.35;;;7.83;73.95
44914;BME280;30650;52.206;20.924;2022-10-31T02:45:33;101003.95;;;7.72;74.21
44914;BME280;30650;52.206;20.924;2022-10-31T02:47:39;101006.79;;;7.65;74.98
44914;BME280;30650;52.206;20.924;2022-10-31T02:48:39;101002.00;;;7.62;74.79
44914;BME280;30650;52.206;20.924;2022-10-31T02:49:40;101000.54;;;7.54;74.60
44914;BME280;30650;52.206;20.924;2022-10-31T02:50:41;101010.04;;;7.58;74.73
44914;BME280;30650;52.206;20.924;2022-10-31T02:51:39;101015.12;;;7.57;74.67
44914;BME280;30650;52.206;20.924;2022-10-31T02:52:36;101009.98;;;7.57;74.92
44914;BME280;30650;52.206;20.924;2022-10-31T02:53:33;101014.25;;;7.56;74.59
44914;BME280;30650;52.206;20.924;2022-10-31T02:54:31;101018.97;;;7.57;74.48
44914;BME280;30650;52.206;20.924;2022-10-31T02:56:32;101017.74;;;7.58;74.21
44914;BME280;30650;52.206;20.924;2022-10-31T02:57:31;101021.19;;;7.60;74.03
44914;BME280;30650;52.206;20.924;2022-10-31T02:58:31;101024.67;;;7.62;74.08
44914;BME280;30650;52.206;20.924;2022-10-31T02:59:30;101025.12;;;7.63;73.87
44914;BME280;30650;52.206;20.924;2022-10-31T03:00:31;101020.46;;;7.64;74.11
44914;BME280;30650;52.206;20.924;2022-10-31T03:02:02;101026.48;;;7.66;74.28
44914;BME280;30650;52.206;20.924;2022-10-31T03:06:14;101030.73;;;7.64;74.17
44914;BME280;30650;52.206;20.924;2022-10-31T03:07:25;101028.02;;;7.60;74.40
44914;BME280;30650;52.206;20.924;2022-10-31T03:08:47;101028.02;;;7.60;74.40
44914;BME280;30650;52.206;20.924;2022-10-31T03:11:09;101026.20;;;7.54;74.29
44914;BME280;30650;52.206;20.924;2022-10-31T03:12:11;101031.67;;;7.51;74.83
44914;BME280;30650;52.206;20.924;2022-10-31T03:13:16;101028.24;;;7.50;75.01
44914;BME280;30650;52.206;20.924;2022-10-31T03:14:21;101030.33;;;7.49;75.07
44914;BME280;30650;52.206;20.924;2022-10-31T03:15:26;101033.37;;;7.50;75.24
44914;BME280;30650;52.206;20.924;2022-10-31T03:16:51;101039.37;;;7.51;75.34
44914;BME280;30650;52.206;20.924;2022-10-31T03:19:10;101038.61;;;7.55;75.09
44914;BME280;30650;52.206;20.924;2022-10-31T03:20:10;101044.23;;;7.57;74.79
44914;BME280;30650;52.206;20.924;2022-10-31T03:21:22;101038.29;;;7.60;74.96
44914;BME280;30650;52.206;20.924;2022-10-31T03:22:25;101036.20;;;7.61;75.08
44914;BME280;30650;52.206;20.924;2022-10-31T03:23:24;101043.08;;;7.63;75.25
44914;BME280;30650;52.206;20.924;2022-10-31T03:24:22;101042.28;;;7.64;75.09
44914;BME280;30650;52.206;20.924;2022-10-31T03:25:22;101048.27;;;7.65;74.91
44914;BME280;30650;52.206;20.924;2022-10-31T03:26:20;101040.99;;;7.64;74.94
44914;BME280;30650;52.206;20.924;2022-10-31T03:27:21;101050.41;;;7.65;75.03
44914;BME280;30650;52.206;20.924;2022-10-31T03:28:22;101046.98;;;7.65;74.65
44914;BME280;30650;52.206;20.924;2022-10-31T03:29:20;101045.65;;;7.63;74.97
44914;BME280;30650;52.206;20.924;2022-10-31T03:30:18;101047.41;;;7.64;75.16
44914;BME280;30650;52.206;20.924;2022-10-31T03:31:18;101050.34;;;7.62;75.32
44914;BME280;30650;52.206;20.924;2022-10-31T03:32:22;101041.78;;;7.62;75.29
44914;BME280;30650;52.206;20.924;2022-10-31T03:33:21;101044.34;;;7.62;75.15
44914;BME280;30650;52.206;20.924;2022-10-31T03:34:20;101044.77;;;7.61;75.45
44914;BME280;30650;52.206;20.924;2022-10-31T03:35:19;101044.77;;;7.61;75.83
44914;BME280;30650;52.206;20.924;2022-10-31T03:36:17;101041.80;;;7.63;75.86
44914;BME280;30650;52.206;20.924;2022-10-31T03:37:17;101048.27;;;7.65;75.68
44914;BME280;30650;52.206;20.924;2022-10-31T03:38:15;101038.01;;;7.65;75.76
44914;BME280;30650;52.206;20.924;2022-10-31T03:39:14;101041.94;;;7.68;76.02
44914;BME280;30650;52.206;20.924;2022-10-31T03:40:13;101043.27;;;7.71;76.23
44914;BME280;30650;52.206;20.924;2022-10-31T03:41:17;101040.77;;;7.74;76.64
44914;BME280;30650;52.206;20.924;2022-10-31T03:42:25;101037.42;;;7.77;76.74
44914;BME280;30650;52.206;20.924;2022-10-31T03:43:22;101040.53;;;7.82;76.83
44914;BME280;30650;52.206;20.924;2022-10-31T03:44:21;101049.17;;;7.86;76.21
44914;BME280;30650;52.206;20.924;2022-10-31T03:45:24;101043.67;;;7.88;76.30
44914;BME280;30650;52.206;20.924;2022-10-31T03:46:23;101044.59;;;7.90;76.11
44914;BME280;30650;52.206;20.924;2022-10-31T03:47:20;101044.19;;;7.92;76.22
44914;BME280;30650;52.206;20.924;2022-10-31T03:48:18;101048.95;;;7.94;76.53
44914;BME280;30650;52.206;20.924;2022-10-31T03:49:16;101045.55;;;7.95;76.94
44914;BME280;30650;52.206;20.924;2022-10-31T03:50:15;101049.84;;;7.96;77.40
44914;BME280;30650;52.206;20.924;2022-10-31T03:51:22;101051.17;;;7.97;77.76
44914;BME280;30650;52.206;20.924;2022-10-31T03:53:37;101053.40;;;8.01;78.13
44914;BME280;30650;52.206;20.924;2022-10-31T03:54:45;101052.98;;;8.02;78.39
44914;BME280;30650;52.206;20.924;2022-10-31T03:55:50;101049.64;;;8.06;78.65
44914;BME280;30650;52.206;20.924;2022-10-31T03:56:55;101054.85;;;8.09;79.01
44914;BME280;30650;52.206;20.924;2022-10-31T03:58:19;101057.07;;;8.12;79.49
44914;BME280;30650;52.206;20.924;2022-10-31T03:59:42;101052.47;;;8.18;79.39
44914;BME280;30650;52.206;20.924;2022-10-31T04:00:43;101056.84;;;8.22;78.79
44914;BME280;30650;52.206;20.924;2022-10-31T04:01:43;101054.41;;;8.28;78.57
44914;BME280;30650;52.206;20.924;2022-10-31T04:02:49;101051.05;;;8.31;77.46
44914;BME280;30650;52.206;20.924;2022-10-31T04:03:54;101049.36;;;8.33;77.44
44914;BME280;30650;52.206;20.924;2022-10-31T04:04:51;101046.00;;;8.35;77.05
44914;BME280;30650;52.206;20.924;2022-10-31T04:05:49;101046.53;;;8.38;77.35
44914;BME280;30650;52.206;20.924;2022-10-31T04:06:50;101048.69;;;8.40;77.17
44914;BME280;30650;52.206;20.924;2022-10-31T04:07:50;101048.74;;;8.41;77.28
44914;BME280;30650;52.206;20.924;2022-10-31T04:08:56;101048.77;;;8.43;77.38
44914;BME280;30650;52.206;20.924;2022-10-31T04:09:51;101045.77;;;8.43;77.60
44914;BME280;30650;52.206;20.924;2022-10-31T04:10:50;101043.63;;;8.43;77.03
44914;BME280;30650;52.206;20.924;2022-10-31T04:11:52;101050.91;;;8.43;76.17
44914;BME280;30650;52.206;20.924;2022-10-31T04:12:56;101050.47;;;8.42;76.51
44914;BME280;30650;52.206;20.924;2022-10-31T04:13:54;101048.74;;;8.41;76.02
44914;BME280;30650;52.206;20.924;2022-10-31T04:14:54;101050.89;;;8.42;76.62
44914;BME280;30650;52.206;20.924;2022-10-31T04:15:52;101050.05;;;8.43;75.88
44914;BME280;30650;52.206;20.924;2022-10-31T04:16:50;101051.75;;;8.42;75.56
44914;BME280;30650;52.206;20.924;2022-10-31T04:17:48;101051.75;;;8.42;74.77
44914;BME280;30650;52.206;20.924;2022-10-31T04:18:46;101047.04;;;8.42;74.69
44914;BME280;30650;52.206;20.924;2022-10-31T04:19:43;101048.34;;;8.43;74.68
44914;BME280;30650;52.206;20.924;2022-10-31T04:20:41;101047.11;;;8.45;74.51
44914;BME280;30650;52.206;20.924;2022-10-31T04:21:37;101053.11;;;8.45;73.54
44914;BME280;30650;52.206;20.924;2022-10-31T04:22:34;101049.61;;;8.42;72.86
44914;BME280;30650;52.206;20.924;2022-10-31T04:24:29;101045.58;;;8.36;72.06
44914;BME280;30650;52.206;20.924;2022-10-31T04:25:26;101052.80;;;8.33;72.28
44914;BME280;30650;52.206;20.924;2022-10-31T04:26:23;101051.47;;;8.30;72.20
44914;BME280;30650;52.206;20.924;2022-10-31T04:27:21;101053.98;;;8.29;72.31
44914;BME280;30650;52.206;20.924;2022-10-31T04:28:18;101056.48;;;8.26;72.31
44914;BME280;30650;52.206;20.924;2022-10-31T04:29:16;101053.41;;;8.21;72.26
44914;BME280;30650;52.206;20.924;2022-10-31T04:30:13;101056.77;;;8.19;72.53
44914;BME280;30650;52.206;20.924;2022-10-31T04:31:11;101053.29;;;8.15;73.10
44914;BME280;30650;52.206;20.924;2022-10-31T04:32:08;101054.08;;;8.13;73.84
44914;BME280;30650;52.206;20.924;2022-10-31T04:33:06;101055.73;;;8.11;73.43
44914;BME280;30650;52.206;20.924;2022-10-31T04:34:03;101053.98;;;8.08;73.54
44914;BME280;30650;52.206;20.924;2022-10-31T04:34:59;101052.65;;;8.07;74.13
44914;BME280;30650;52.206;20.924;2022-10-31T04:35:56;101055.64;;;8.06;75.05
44914;BME280;30650;52.206;20.924;2022-10-31T04:36:53;101052.70;;;8.08;75.87
44914;BME280;30650;52.206;20.924;2022-10-31T04:37:50;101060.01;;;8.10;76.12
44914;BME280;30650;52.206;20.924;2022-10-31T04:38:47;101061.73;;;8.11;74.85
44914;BME280;30650;52.206;20.924;2022-10-31T04:39:44;101057.88;;;8.11;74.93
44914;BME280;30650;52.206;20.924;2022-10-31T04:40:40;101057.07;;;8.12;74.27
44914;BME280;30650;52.206;20.924;2022-10-31T04:41:37;101063.02;;;8.11;74.76
44914;BME280;30650;52.206;20.924;2022-10-31T04:42:34;101057.09;;;8.14;75.32
44914;BME280;30650;52.206;20.924;2022-10-31T04:43:31;101063.14;;;8.16;75.49
44914;BME280;30650;52.206;20.924;2022-10-31T04:44:28;101060.62;;;8.19;75.50
44914;BME280;30650;52.206;20.924;2022-10-31T04:45:25;101062.38;;;8.20;75.44
44914;BME280;30650;52.206;20.924;2022-10-31T04:46:21;101064.09;;;8.21;75.15
44914;BME280;30650;52.206;20.924;2022-10-31T04:47:20;101061.55;;;8.22;75.39
44914;BME280;30650;52.206;20.924;2022-10-31T04:48:16;101068.39;;;8.22;75.42
44914;BME280;30650;52.206;20.924;2022-10-31T04:49:13;101066.67;;;8.21;74.94
44914;BME280;30650;52.206;20.924;2022-10-31T04:50:10;101067.52;;;8.20;74.90
44914;BME280;30650;52.206;20.924;2022-10-31T04:51:07;101069.16;;;8.18;74.91
44914;BME280;30650;52.206;20.924;2022-10-31T04:52:04;101071.30;;;8.17;74.70
44914;BME280;30650;52.206;20.924;2022-10-31T04:53:02;101069.52;;;8.14;73.60
44914;BME280;30650;52.206;20.924;2022-10-31T04:53:59;101065.98;;;8.09;73.92
44914;BME280;30650;52.206;20.924;2022-10-31T04:54:56;101068.11;;;8.08;74.14
44914;BME280;30650;52.206;20.924;2022-10-31T04:55:52;101068.50;;;8.08;74.05
44914;BME280;30650;52.206;20.924;2022-10-31T04:56:49;101067.62;;;8.06;73.49
44914;BME280;30650;52.206;20.924;2022-10-31T04:57:48;101064.13;;;8.04;72.95
44914;BME280;30650;52.206;20.924;2022-10-31T04:58:46;101064.97;;;8.03;72.88
44914;BME280;30650;52.206;20.924;2022-10-31T04:59:43;101067.96;;;8.02;72.88
44914;BME280;30650;52.206;20.924;2022-10-31T05:00:40;101062.39;;;8.01;72.59
44914;BME280;30650;52.206;20.924;2022-10-31T05:01:37;101064.06;;;8.01;73.33
44914;BME280;30650;52.206;20.924;2022-10-31T05:02:34;101064.90;;;8.00;73.61
44914;BME280;30650;52.206;20.924;2022-10-31T05:03:30;101063.17;;;7.98;73.48
44914;BME280;30650;52.206;20.924;2022-10-31T05:04:27;101065.32;;;7.99;73.54
44914;BME280;30650;52.206;20.924;2022-10-31T05:05:27;101060.97;;;7.96;73.59
44914;BME280;30650;52.206;20.924;2022-10-31T05:06:25;101062.26;;;7.96;73.34
44914;BME280;30650;52.206;20.924;2022-10-31T05:07:22;101062.21;;;7.93;73.85
44914;BME280;30650;52.206;20.924;2022-10-31T05:08:19;101061.73;;;7.92;73.92
44914;BME280;30650;52.206;20.924;2022-10-31T05:09:16;101063.00;;;7.91;74.11
44914;BME280;30650;52.206;20.924;2022-10-31T05:10:16;101064.20;;;7.88;74.20
44914;BME280;30650;52.206;20.924;2022-10-31T05:11:17;101061.20;;;7.87;74.78
44914;BME280;30650;52.206;20.924;2022-10-31T05:12:14;101061.62;;;7.86;75.33
44914;BME280;30650;52.206;20.924;2022-10-31T05:13:11;101058.05;;;7.81;75.25
44914;BME280;30650;52.206;20.924;2022-10-31T05:14:08;101064.80;;;7.76;75.68
44914;BME280;30650;52.206;20.924;2022-10-31T05:15:05;101071.58;;;7.74;76.76
44914;BME280;30650;52.206;20.924;2022-10-31T05:16:03;101067.70;;;7.72;77.11
44914;BME280;30650;52.206;20.924;2022-10-31T05:17:01;101066.84;;;7.72;77.47
44914;BME280;30650;52.206;20.924;2022-10-31T05:17:58;101068.59;;;7.74;77.80
44914;BME280;30650;52.206;20.924;2022-10-31T05:18:55;101069.58;;;7.80;78.05
44914;BME280;30650;52.206;20.924;2022-10-31T05:19:52;101065.81;;;7.83;78.07
44914;BME280;30650;52.206;20.924;2022-10-31T05:20:49;101071.89;;;7.86;78.00
44914;BME280;30650;52.206;20.924;2022-10-31T05:21:46;101066.85;;;7.91;78.06
44914;BME280;30650;52.206;20.924;2022-10-31T05:22:46;101062.26;;;7.96;78.10
44914;BME280;30650;52.206;20.924;2022-10-31T05:23:48;101065.39;;;8.02;78.03
44914;BME280;30650;52.206;20.924;2022-10-31T05:24:45;101064.20;;;8.07;77.95
44914;BME280;30650;52.206;20.924;2022-10-31T05:25:42;101065.14;;;8.10;77.80
44914;BME280;30650;52.206;20.924;2022-10-31T05:26:38;101068.70;;;8.15;77.70
44914;BME280;30650;52.206;20.924;2022-10-31T05:27:40;101068.30;;;8.17;77.58
44914;BME280;30650;52.206;20.924;2022-10-31T05:28:38;101071.38;;;8.21;77.71
44914;BME280;30650;52.206;20.924;2022-10-31T05:29:35;101070.59;;;8.24;77.87
44914;BME280;30650;52.206;20.924;2022-10-31T05:30:33;101071.97;;;8.29;77.95
44914;BME280;30650;52.206;20.924;2022-10-31T05:31:30;101075.05;;;8.33;77.94
44914;BME280;30650;52.206;20.924;2022-10-31T05:32:27;101071.71;;;8.37;77.81
44914;BME280;30650;52.206;20.924;2022-10-31T05:33:25;101069.67;;;8.39;77.73
44914;BME280;30650;52.206;20.924;2022-10-31T05:34:22;101072.73;;;8.42;77.57
44914;BME280;30650;52.206;20.924;2022-10-31T05:35:27;101071.89;;;8.43;77.37
44914;BME280;30650;52.206;20.924;2022-10-31T05:36:25;101067.66;;;8.45;77.26